sensor_id;sensor_type;location;lat;lon;timestamp;P1;durP1;ratioP1;P2;durP2;ratioP2
13122;SDS011;6627;50.920;12.050;2023-07-13T00:02:18;2.60;;;1.73;;
13122;SDS011;6627;50.920;12.050;2023-07-13T00:04:47;4.60;;;1.73;;
13122;SDS011;6627;50.920;12.050;2023-07-13T00:07:17;2.57;;;1.60;;
13122;SDS011;6627;50.920;12.050;2023-07-13T00:09:46;2.70;;;1.50;;
13122;SDS011;6627;50.920;12.050;2023-07-13T00:12:27;6.47;;;1.70;;
13122;SDS011;6627;50.920;12.050;2023-07-13T00:14:57;3.33;;;1.53;;
13122;SDS011;6627;50.920;12.050;2023-07-13T00:17:31;5.50;;;1.73;;
13122;SDS011;6627;50.920;12.050;2023-07-13T00:20:09;2.60;;;1.43;;
13122;SDS011;6627;50.920;12.050;2023-07-13T00:22:38;6.93;;;1.63;;
13122;SDS011;6627;50.920;12.050;2023-07-13T00:25:06;3.53;;;1.83;;
13122;SDS011;6627;50.920;12.050;2023-07-13T00:27:37;5.30;;;1.70;;
13122;SDS011;6627;50.920;12.050;2023-07-13T00:30:11;4.97;;;1.70;;
13122;SDS011;6627;50.920;12.050;2023-07-13T00:32:39;3.00;;;1.50;;
13122;SDS011;6627;50.920;12.050;2023-07-13T00:35:07;3.30;;;1.40;;
13122;SDS011;6627;50.920;12.050;2023-07-13T00:37:38;3.57;;;1.67;;
13122;SDS011;6627;50.920;12.050;2023-07-13T00:40:07;4.63;;;1.70;;
13122;SDS011;6627;50.920;12.050;2023-07-13T00:42:46;4.10;;;1.60;;
13122;SDS011;6627;50.920;12.050;2023-07-13T00:48:37;3.77;;;1.60;;
13122;SDS011;6627;50.920;12.050;2023-07-13T00:51:07;3.33;;;1.70;;
13122;SDS011;6627;50.920;12.050;2023-07-13T00:53:37;5.43;;;1.50;;
13122;SDS011;6627;50.920;12.050;2023-07-13T00:56:06;5.33;;;1.90;;
13122;SDS011;6627;50.920;12.050;2023-07-13T00:58:36;3.87;;;1.67;;
13122;SDS011;6627;50.920;12.050;2023-07-13T01:01:05;2.90;;;1.60;;
13122;SDS011;6627;50.920;12.050;2023-07-13T01:03:34;5.60;;;1.70;;
13122;SDS011;6627;50.920;12.050;2023-07-13T01:06:05;3.13;;;1.60;;
13122;SDS011;6627;50.920;12.050;2023-07-13T01:08:32;4.47;;;2.00;;
13122;SDS011;6627;50.920;12.050;2023-07-13T01:11:00;2.93;;;1.70;;
13122;SDS011;6627;50.920;12.050;2023-07-13T01:13:36;3.47;;;1.60;;
13122;SDS011;6627;50.920;12.050;2023-07-13T01:16:13;3.83;;;1.60;;
13122;SDS011;6627;50.920;12.050;2023-07-13T01:18:59;3.83;;;2.07;;
13122;SDS011;6627;50.920;12.050;2023-07-13T01:21:35;3.73;;;1.60;;
13122;SDS011;6627;50.920;12.050;2023-07-13T01:24:10;2.73;;;1.70;;
13122;SDS011;6627;50.920;12.050;2023-07-13T01:26:57;5.37;;;2.20;;
13122;SDS011;6627;50.920;12.050;2023-07-13T01:29:25;3.80;;;1.97;;
13122;SDS011;6627;50.920;12.050;2023-07-13T01:31:55;3.10;;;2.00;;
13122;SDS011;6627;50.920;12.050;2023-07-13T01:34:24;3.20;;;1.63;;
13122;SDS011;6627;50.920;12.050;2023-07-13T01:36:55;5.87;;;1.60;;
13122;SDS011;6627;50.920;12.050;2023-07-13T01:39:23;3.03;;;1.80;;
13122;SDS011;6627;50.920;12.050;2023-07-13T01:41:51;2.80;;;1.57;;
13122;SDS011;6627;50.920;12.050;2023-07-13T01:44:36;3.93;;;2.07;;
13122;SDS011;6627;50.920;12.050;2023-07-13T01:47:10;3.17;;;2.00;;
13122;SDS011;6627;50.920;12.050;2023-07-13T01:49:57;6.07;;;2.20;;
13122;SDS011;6627;50.920;12.050;2023-07-13T01:52:45;3.40;;;1.90;;
13122;SDS011;6627;50.920;12.050;2023-07-13T01:55:33;4.20;;;2.20;;
13122;SDS011;6627;50.920;12.050;2023-07-13T01:58:21;5.00;;;2.10;;
13122;SDS011;6627;50.920;12.050;2023-07-13T02:00:51;3.57;;;2.40;;
13122;SDS011;6627;50.920;12.050;2023-07-13T02:03:19;7.10;;;2.30;;
13122;SDS011;6627;50.920;12.050;2023-07-13T02:05:49;2.90;;;2.00;;
13122;SDS011;6627;50.920;12.050;2023-07-13T02:08:17;5.70;;;2.27;;
13122;SDS011;6627;50.920;12.050;2023-07-13T02:10:44;6.30;;;2.30;;
13122;SDS011;6627;50.920;12.050;2023-07-13T02:13:11;6.20;;;2.50;;
13122;SDS011;6627;50.920;12.050;2023-07-13T02:15:39;6.43;;;2.30;;
13122;SDS011;6627;50.920;12.050;2023-07-13T02:18:07;4.53;;;2.43;;
13122;SDS011;6627;50.920;12.050;2023-07-13T02:20:34;8.27;;;2.43;;
13122;SDS011;6627;50.920;12.050;2023-07-13T02:23:02;6.07;;;2.10;;
13122;SDS011;6627;50.920;12.050;2023-07-13T02:25:30;5.00;;;2.60;;
13122;SDS011;6627;50.920;12.050;2023-07-13T02:27:57;5.97;;;2.40;;
13122;SDS011;6627;50.920;12.050;2023-07-13T02:30:24;4.10;;;2.40;;
13122;SDS011;6627;50.920;12.050;2023-07-13T02:32:51;6.43;;;2.60;;
13122;SDS011;6627;50.920;12.050;2023-07-13T02:35:19;3.53;;;2.40;;
13122;SDS011;6627;50.920;12.050;2023-07-13T02:37:46;4.40;;;2.83;;
13122;SDS011;6627;50.920;12.050;2023-07-13T02:40:13;7.73;;;2.47;;
13122;SDS011;6627;50.920;12.050;2023-07-13T02:42:42;3.27;;;2.37;;
13122;SDS011;6627;50.920;12.050;2023-07-13T02:45:09;4.33;;;2.67;;
13122;SDS011;6627;50.920;12.050;2023-07-13T02:47:39;3.70;;;2.23;;
13122;SDS011;6627;50.920;12.050;2023-07-13T02:50:08;5.57;;;2.60;;
13122;SDS011;6627;50.920;12.050;2023-07-13T02:52:35;5.93;;;2.60;;
13122;SDS011;6627;50.920;12.050;2023-07-13T02:55:03;6.57;;;2.60;;
13122;SDS011;6627;50.920;12.050;2023-07-13T02:57:30;8.03;;;3.20;;
13122;SDS011;6627;50.920;12.050;2023-07-13T02:59:59;4.37;;;2.60;;
13122;SDS011;6627;50.920;12.050;2023-07-13T03:02:30;6.07;;;2.70;;
13122;SDS011;6627;50.920;12.050;2023-07-13T03:04:58;4.80;;;2.60;;
13122;SDS011;6627;50.920;12.050;2023-07-13T03:07:25;4.57;;;2.57;;
13122;SDS011;6627;50.920;12.050;2023-07-13T03:09:53;3.67;;;2.70;;
13122;SDS011;6627;50.920;12.050;2023-07-13T03:12:22;6.93;;;2.60;;
13122;SDS011;6627;50.920;12.050;2023-07-13T03:14:49;5.77;;;2.60;;
13122;SDS011;6627;50.920;12.050;2023-07-13T03:17:18;3.57;;;2.47;;
13122;SDS011;6627;50.920;12.050;2023-07-13T03:19:45;7.03;;;2.80;;
13122;SDS011;6627;50.920;12.050;2023-07-13T03:22:15;15.07;;;2.83;;
13122;SDS011;6627;50.920;12.050;2023-07-13T03:24:42;4.70;;;2.67;;
13122;SDS011;6627;50.920;12.050;2023-07-13T03:27:10;5.60;;;2.90;;
13122;SDS011;6627;50.920;12.050;2023-07-13T03:29:37;4.00;;;2.53;;
13122;SDS011;6627;50.920;12.050;2023-07-13T03:32:05;8.60;;;2.90;;
13122;SDS011;6627;50.920;12.050;2023-07-13T03:34:35;6.47;;;2.70;;
13122;SDS011;6627;50.920;12.050;2023-07-13T03:37:02;5.80;;;2.90;;
13122;SDS011;6627;50.920;12.050;2023-07-13T03:39:30;5.47;;;2.50;;
13122;SDS011;6627;50.920;12.050;2023-07-13T03:41:57;5.20;;;2.20;;
13122;SDS011;6627;50.920;12.050;2023-07-13T03:44:25;4.93;;;2.43;;
13122;SDS011;6627;50.920;12.050;2023-07-13T03:46:52;9.17;;;2.70;;
13122;SDS011;6627;50.920;12.050;2023-07-13T03:49:19;4.70;;;2.47;;
13122;SDS011;6627;50.920;12.050;2023-07-13T03:51:48;4.17;;;2.40;;
13122;SDS011;6627;50.920;12.050;2023-07-13T03:54:15;5.00;;;2.37;;
13122;SDS011;6627;50.920;12.050;2023-07-13T03:56:42;6.40;;;2.50;;
13122;SDS011;6627;50.920;12.050;2023-07-13T03:59:09;3.80;;;2.43;;
13122;SDS011;6627;50.920;12.050;2023-07-13T04:01:37;6.90;;;2.50;;
13122;SDS011;6627;50.920;12.050;2023-07-13T04:04:05;6.80;;;2.70;;
13122;SDS011;6627;50.920;12.050;2023-07-13T04:06:33;4.73;;;2.20;;
13122;SDS011;6627;50.920;12.050;2023-07-13T04:09:02;5.67;;;2.50;;
13122;SDS011;6627;50.920;12.050;2023-07-13T04:11:31;7.70;;;2.80;;
13122;SDS011;6627;50.920;12.050;2023-07-13T04:13:59;6.50;;;2.57;;
13122;SDS011;6627;50.920;12.050;2023-07-13T04:16:27;6.60;;;2.43;;
13122;SDS011;6627;50.920;12.050;2023-07-13T04:18:54;5.17;;;2.57;;
13122;SDS011;6627;50.920;12.050;2023-07-13T04:21:25;4.87;;;2.40;;
13122;SDS011;6627;50.920;12.050;2023-07-13T04:23:53;4.10;;;2.23;;
13122;SDS011;6627;50.920;12.050;2023-07-13T04:26:22;6.03;;;2.83;;
13122;SDS011;6627;50.920;12.050;2023-07-13T04:28:50;9.30;;;2.73;;
13122;SDS011;6627;50.920;12.050;2023-07-13T04:31:18;5.37;;;2.70;;
13122;SDS011;6627;50.920;12.050;2023-07-13T04:33:45;5.77;;;2.80;;
13122;SDS011;6627;50.920;12.050;2023-07-13T04:36:13;6.83;;;2.80;;
13122;SDS011;6627;50.920;12.050;2023-07-13T04:38:42;7.47;;;2.73;;
13122;SDS011;6627;50.920;12.050;2023-07-13T04:41:09;4.83;;;2.60;;
13122;SDS011;6627;50.920;12.050;2023-07-13T04:43:38;6.73;;;2.93;;
13122;SDS011;6627;50.920;12.050;2023-07-13T04:46:06;5.93;;;3.00;;
13122;SDS011;6627;50.920;12.050;2023-07-13T04:48:37;5.73;;;2.60;;
13122;SDS011;6627;50.920;12.050;2023-07-13T04:51:04;5.97;;;2.67;;
13122;SDS011;6627;50.920;12.050;2023-07-13T04:53:32;5.77;;;2.63;;
13122;SDS011;6627;50.920;12.050;2023-07-13T04:56:00;5.97;;;2.57;;
13122;SDS011;6627;50.920;12.050;2023-07-13T04:58:28;4.33;;;2.40;;
13122;SDS011;6627;50.920;12.050;2023-07-13T05:01:00;4.97;;;2.13;;
13122;SDS011;6627;50.920;12.050;2023-07-13T05:03:29;6.63;;;2.47;;
13122;SDS011;6627;50.920;12.050;2023-07-13T05:05:57;5.03;;;2.30;;
13122;SDS011;6627;50.920;12.050;2023-07-13T05:08:27;5.07;;;2.60;;
13122;SDS011;6627;50.920;12.050;2023-07-13T05:10:54;3.57;;;2.47;;
13122;SDS011;6627;50.920;12.050;2023-07-13T05:13:22;5.57;;;2.57;;
13122;SDS011;6627;50.920;12.050;2023-07-13T05:15:55;8.03;;;2.53;;
13122;SDS011;6627;50.920;12.050;2023-07-13T05:18:25;4.40;;;2.73;;
13122;SDS011;6627;50.920;12.050;2023-07-13T05:20:57;5.13;;;2.87;;
13122;SDS011;6627;50.920;12.050;2023-07-13T05:23:27;5.23;;;2.90;;
13122;SDS011;6627;50.920;12.050;2023-07-13T05:25:54;5.27;;;2.77;;
13122;SDS011;6627;50.920;12.050;2023-07-13T05:28:22;5.30;;;2.90;;
13122;SDS011;6627;50.920;12.050;2023-07-13T05:30:51;5.97;;;2.90;;
13122;SDS011;6627;50.920;12.050;2023-07-13T05:33:19;5.63;;;3.17;;
13122;SDS011;6627;50.920;12.050;2023-07-13T05:35:48;5.47;;;2.83;;
13122;SDS011;6627;50.920;12.050;2023-07-13T05:38:15;7.40;;;3.10;;
13122;SDS011;6627;50.920;12.050;2023-07-13T05:40:42;4.37;;;2.60;;
13122;SDS011;6627;50.920;12.050;2023-07-13T05:43:10;5.00;;;3.00;;
13122;SDS011;6627;50.920;12.050;2023-07-13T05:45:38;5.50;;;3.07;;
13122;SDS011;6627;50.920;12.050;2023-07-13T05:48:05;5.03;;;2.80;;
13122;SDS011;6627;50.920;12.050;2023-07-13T05:50:33;8.20;;;2.90;;
13122;SDS011;6627;50.920;12.050;2023-07-13T05:53:01;6.53;;;2.83;;
13122;SDS011;6627;50.920;12.050;2023-07-13T05:55:28;8.53;;;3.43;;
13122;SDS011;6627;50.920;12.050;2023-07-13T05:57:56;7.60;;;3.00;;
13122;SDS011;6627;50.920;12.050;2023-07-13T06:00:24;7.27;;;2.77;;
13122;SDS011;6627;50.920;12.050;2023-07-13T06:02:52;6.00;;;3.07;;
13122;SDS011;6627;50.920;12.050;2023-07-13T06:05:19;7.97;;;3.07;;
13122;SDS011;6627;50.920;12.050;2023-07-13T06:07:46;5.30;;;2.83;;
13122;SDS011;6627;50.920;12.050;2023-07-13T06:10:15;6.93;;;2.73;;
13122;SDS011;6627;50.920;12.050;2023-07-13T06:12:42;5.33;;;2.80;;
13122;SDS011;6627;50.920;12.050;2023-07-13T06:15:09;6.53;;;2.70;;
13122;SDS011;6627;50.920;12.050;2023-07-13T06:17:38;7.13;;;2.60;;
13122;SDS011;6627;50.920;12.050;2023-07-13T06:20:06;6.30;;;2.50;;
13122;SDS011;6627;50.920;12.050;2023-07-13T06:22:34;7.13;;;2.63;;
13122;SDS011;6627;50.920;12.050;2023-07-13T06:25:01;7.13;;;2.77;;
13122;SDS011;6627;50.920;12.050;2023-07-13T06:27:30;7.33;;;2.77;;
13122;SDS011;6627;50.920;12.050;2023-07-13T06:29:58;8.53;;;2.80;;
13122;SDS011;6627;50.920;12.050;2023-07-13T06:32:25;5.10;;;2.37;;
13122;SDS011;6627;50.920;12.050;2023-07-13T06:34:52;5.33;;;2.50;;
13122;SDS011;6627;50.920;12.050;2023-07-13T06:37:20;8.57;;;2.70;;
13122;SDS011;6627;50.920;12.050;2023-07-13T06:39:47;6.87;;;2.63;;
13122;SDS011;6627;50.920;12.050;2023-07-13T06:42:15;4.87;;;2.90;;
13122;SDS011;6627;50.920;12.050;2023-07-13T06:44:44;6.03;;;2.70;;
13122;SDS011;6627;50.920;12.050;2023-07-13T06:47:12;12.73;;;2.63;;
13122;SDS011;6627;50.920;12.050;2023-07-13T06:49:39;5.00;;;2.43;;
13122;SDS011;6627;50.920;12.050;2023-07-13T06:52:06;4.97;;;2.30;;
13122;SDS011;6627;50.920;12.050;2023-07-13T06:54:33;4.73;;;2.13;;
13122;SDS011;6627;50.920;12.050;2023-07-13T06:57:01;10.13;;;2.60;;
13122;SDS011;6627;50.920;12.050;2023-07-13T06:59:28;8.87;;;2.63;;
13122;SDS011;6627;50.920;12.050;2023-07-13T07:01:57;9.23;;;2.73;;
13122;SDS011;6627;50.920;12.050;2023-07-13T07:04:24;3.27;;;2.10;;
13122;SDS011;6627;50.920;12.050;2023-07-13T07:06:51;6.40;;;2.23;;
13122;SDS011;6627;50.920;12.050;2023-07-13T07:09:18;5.70;;;2.30;;
13122;SDS011;6627;50.920;12.050;2023-07-13T07:11:46;5.53;;;2.07;;
13122;SDS011;6627;50.920;12.050;2023-07-13T07:14:13;4.27;;;1.80;;
13122;SDS011;6627;50.920;12.050;2023-07-13T07:16:40;8.60;;;2.50;;
13122;SDS011;6627;50.920;12.050;2023-07-13T07:19:09;4.80;;;2.10;;
13122;SDS011;6627;50.920;12.050;2023-07-13T07:21:36;4.37;;;2.07;;
13122;SDS011;6627;50.920;12.050;2023-07-13T07:24:03;4.83;;;1.97;;
13122;SDS011;6627;50.920;12.050;2023-07-13T07:26:31;6.93;;;1.80;;
13122;SDS011;6627;50.920;12.050;2023-07-13T07:28:59;5.20;;;2.00;;
13122;SDS011;6627;50.920;12.050;2023-07-13T07:31:26;4.07;;;1.80;;
13122;SDS011;6627;50.920;12.050;2023-07-13T07:33:53;4.20;;;1.80;;
13122;SDS011;6627;50.920;12.050;2023-07-13T07:36:22;4.57;;;2.10;;
13122;SDS011;6627;50.920;12.050;2023-07-13T07:38:49;3.37;;;1.97;;
13122;SDS011;6627;50.920;12.050;2023-07-13T07:41:16;3.37;;;1.80;;
13122;SDS011;6627;50.920;12.050;2023-07-13T07:43:43;5.60;;;1.97;;
13122;SDS011;6627;50.920;12.050;2023-07-13T07:46:11;5.33;;;1.70;;
13122;SDS011;6627;50.920;12.050;2023-07-13T07:48:38;5.73;;;1.90;;
13122;SDS011;6627;50.920;12.050;2023-07-13T07:51:05;2.60;;;1.53;;
13122;SDS011;6627;50.920;12.050;2023-07-13T07:53:33;6.13;;;2.00;;
13122;SDS011;6627;50.920;12.050;2023-07-13T07:56:01;5.27;;;1.80;;
13122;SDS011;6627;50.920;12.050;2023-07-13T07:58:28;4.33;;;1.83;;
13122;SDS011;6627;50.920;12.050;2023-07-13T08:01:01;7.30;;;1.80;;
13122;SDS011;6627;50.920;12.050;2023-07-13T08:03:30;6.00;;;2.00;;
13122;SDS011;6627;50.920;12.050;2023-07-13T08:05:58;6.27;;;2.10;;
13122;SDS011;6627;50.920;12.050;2023-07-13T08:08:25;8.33;;;1.73;;
13122;SDS011;6627;50.920;12.050;2023-07-13T08:10:54;5.57;;;1.70;;
13122;SDS011;6627;50.920;12.050;2023-07-13T08:13:21;7.03;;;1.67;;
13122;SDS011;6627;50.920;12.050;2023-07-13T08:15:48;4.30;;;1.87;;
13122;SDS011;6627;50.920;12.050;2023-07-13T08:18:16;5.53;;;1.73;;
13122;SDS011;6627;50.920;12.050;2023-07-13T08:20:43;7.13;;;1.83;;
13122;SDS011;6627;50.920;12.050;2023-07-13T08:23:10;7.20;;;2.00;;
13122;SDS011;6627;50.920;12.050;2023-07-13T08:25:38;3.60;;;1.50;;
13122;SDS011;6627;50.920;12.050;2023-07-13T08:28:06;6.40;;;1.90;;
13122;SDS011;6627;50.920;12.050;2023-07-13T08:30:34;5.37;;;1.70;;
13122;SDS011;6627;50.920;12.050;2023-07-13T08:33:01;4.23;;;1.53;;
13122;SDS011;6627;50.920;12.050;2023-07-13T08:35:29;2.93;;;1.70;;
13122;SDS011;6627;50.920;12.050;2023-07-13T08:37:56;6.30;;;1.83;;
13122;SDS011;6627;50.920;12.050;2023-07-13T08:40:26;6.50;;;2.13;;
13122;SDS011;6627;50.920;12.050;2023-07-13T08:42:54;4.57;;;1.90;;
13122;SDS011;6627;50.920;12.050;2023-07-13T08:45:28;7.63;;;2.00;;
13122;SDS011;6627;50.920;12.050;2023-07-13T08:48:10;5.77;;;1.90;;
13122;SDS011;6627;50.920;12.050;2023-07-13T08:50:47;5.83;;;1.87;;
13122;SDS011;6627;50.920;12.050;2023-07-13T08:53:22;5.77;;;1.70;;
13122;SDS011;6627;50.920;12.050;2023-07-13T08:55:57;6.10;;;2.17;;
13122;SDS011;6627;50.920;12.050;2023-07-13T08:58:26;3.87;;;1.60;;
13122;SDS011;6627;50.920;12.050;2023-07-13T09:00:58;4.13;;;1.40;;
13122;SDS011;6627;50.920;12.050;2023-07-13T09:03:40;4.13;;;1.40;;
13122;SDS011;6627;50.920;12.050;2023-07-13T09:06:21;6.30;;;1.80;;
13122;SDS011;6627;50.920;12.050;2023-07-13T09:08:59;4.07;;;1.90;;
13122;SDS011;6627;50.920;12.050;2023-07-13T09:11:39;3.57;;;2.00;;
13122;SDS011;6627;50.920;12.050;2023-07-13T09:14:27;3.20;;;1.50;;
13122;SDS011;6627;50.920;12.050;2023-07-13T09:17:11;5.20;;;1.90;;
13122;SDS011;6627;50.920;12.050;2023-07-13T09:19:46;3.87;;;1.60;;
13122;SDS011;6627;50.920;12.050;2023-07-13T09:22:20;4.47;;;1.70;;
13122;SDS011;6627;50.920;12.050;2023-07-13T09:24:55;3.03;;;1.70;;
13122;SDS011;6627;50.920;12.050;2023-07-13T09:27:30;3.80;;;1.60;;
13122;SDS011;6627;50.920;12.050;2023-07-13T09:30:09;3.50;;;1.60;;
13122;SDS011;6627;50.920;12.050;2023-07-13T09:32:53;4.60;;;1.50;;
13122;SDS011;6627;50.920;12.050;2023-07-13T09:35:21;5.67;;;1.83;;
13122;SDS011;6627;50.920;12.050;2023-07-13T09:37:56;5.20;;;1.60;;
13122;SDS011;6627;50.920;12.050;2023-07-13T09:40:32;4.33;;;1.70;;
13122;SDS011;6627;50.920;12.050;2023-07-13T09:43:10;3.23;;;1.57;;
13122;SDS011;6627;50.920;12.050;2023-07-13T09:45:41;4.63;;;1.60;;
13122;SDS011;6627;50.920;12.050;2023-07-13T09:48:14;5.70;;;1.90;;
13122;SDS011;6627;50.920;12.050;2023-07-13T09:50:43;2.83;;;1.93;;
13122;SDS011;6627;50.920;12.050;2023-07-13T09:53:12;7.33;;;1.70;;
13122;SDS011;6627;50.920;12.050;2023-07-13T09:55:42;5.30;;;2.03;;
13122;SDS011;6627;50.920;12.050;2023-07-13T09:58:12;3.47;;;1.73;;
13122;SDS011;6627;50.920;12.050;2023-07-13T10:00:41;3.13;;;1.50;;
13122;SDS011;6627;50.920;12.050;2023-07-13T10:03:23;3.30;;;1.97;;
13122;SDS011;6627;50.920;12.050;2023-07-13T10:05:53;3.73;;;1.67;;
13122;SDS011;6627;50.920;12.050;2023-07-13T10:08:28;3.10;;;1.80;;
13122;SDS011;6627;50.920;12.050;2023-07-13T10:10:58;6.00;;;1.67;;
13122;SDS011;6627;50.920;12.050;2023-07-13T10:13:29;4.63;;;2.00;;
13122;SDS011;6627;50.920;12.050;2023-07-13T10:16:02;3.83;;;1.70;;
13122;SDS011;6627;50.920;12.050;2023-07-13T10:18:37;5.30;;;1.73;;
13122;SDS011;6627;50.920;12.050;2023-07-13T10:21:11;4.37;;;1.77;;
13122;SDS011;6627;50.920;12.050;2023-07-13T10:23:43;4.33;;;1.60;;
13122;SDS011;6627;50.920;12.050;2023-07-13T10:26:17;5.40;;;1.60;;
13122;SDS011;6627;50.920;12.050;2023-07-13T10:28:51;5.63;;;1.87;;
13122;SDS011;6627;50.920;12.050;2023-07-13T10:31:23;4.10;;;2.00;;
13122;SDS011;6627;50.920;12.050;2023-07-13T10:33:52;8.63;;;1.53;;
13122;SDS011;6627;50.920;12.050;2023-07-13T10:36:23;2.73;;;1.50;;
13122;SDS011;6627;50.920;12.050;2023-07-13T10:39:04;3.43;;;1.70;;
13122;SDS011;6627;50.920;12.050;2023-07-13T10:41:34;6.30;;;1.73;;
13122;SDS011;6627;50.920;12.050;2023-07-13T10:44:09;3.73;;;1.20;;
13122;SDS011;6627;50.920;12.050;2023-07-13T10:46:50;3.83;;;1.90;;
13122;SDS011;6627;50.920;12.050;2023-07-13T10:49:22;2.30;;;1.33;;
13122;SDS011;6627;50.920;12.050;2023-07-13T10:51:51;3.00;;;1.50;;
13122;SDS011;6627;50.920;12.050;2023-07-13T10:54:19;3.93;;;1.17;;
13122;SDS011;6627;50.920;12.050;2023-07-13T10:56:53;2.30;;;1.53;;
13122;SDS011;6627;50.920;12.050;2023-07-13T10:59:42;2.70;;;1.23;;
13122;SDS011;6627;50.920;12.050;2023-07-13T11:02:15;2.43;;;1.60;;
13122;SDS011;6627;50.920;12.050;2023-07-13T11:04:54;1.93;;;1.20;;
13122;SDS011;6627;50.920;12.050;2023-07-13T11:07:24;4.03;;;1.37;;
13122;SDS011;6627;50.920;12.050;2023-07-13T11:09:55;3.97;;;1.37;;
13122;SDS011;6627;50.920;12.050;2023-07-13T11:12:28;2.23;;;1.20;;
13122;SDS011;6627;50.920;12.050;2023-07-13T11:15:27;3.38;;;1.83;;
13122;SDS011;6627;50.920;12.050;2023-07-13T11:18:02;3.30;;;1.80;;
13122;SDS011;6627;50.920;12.050;2023-07-13T11:20:39;3.97;;;2.10;;
13122;SDS011;6627;50.920;12.050;2023-07-13T11:23:09;2.13;;;1.30;;
13122;SDS011;6627;50.920;12.050;2023-07-13T11:25:46;3.60;;;1.20;;
13122;SDS011;6627;50.920;12.050;2023-07-13T11:28:21;3.03;;;1.43;;
13122;SDS011;6627;50.920;12.050;2023-07-13T11:30:59;5.53;;;1.40;;
13122;SDS011;6627;50.920;12.050;2023-07-13T11:33:49;2.83;;;1.37;;
13122;SDS011;6627;50.920;12.050;2023-07-13T11:36:28;2.47;;;1.20;;
13122;SDS011;6627;50.920;12.050;2023-07-13T11:38:59;4.00;;;1.20;;
13122;SDS011;6627;50.920;12.050;2023-07-13T11:41:37;1.00;;;0.80;;
13122;SDS011;6627;50.920;12.050;2023-07-13T11:44:13;2.17;;;1.10;;
13122;SDS011;6627;50.920;12.050;2023-07-13T11:46:45;1.17;;;0.90;;
13122;SDS011;6627;50.920;12.050;2023-07-13T11:49:15;1.67;;;0.97;;
13122;SDS011;6627;50.920;12.050;2023-07-13T11:51:45;3.90;;;0.90;;
13122;SDS011;6627;50.920;12.050;2023-07-13T11:54:26;1.83;;;0.90;;
13122;SDS011;6627;50.920;12.050;2023-07-13T11:56:56;1.77;;;1.20;;
13122;SDS011;6627;50.920;12.050;2023-07-13T11:59:27;1.20;;;0.90;;
13122;SDS011;6627;50.920;12.050;2023-07-13T12:01:58;3.30;;;1.00;;
13122;SDS011;6627;50.920;12.050;2023-07-13T12:04:27;2.92;;;1.13;;
13122;SDS011;6627;50.920;12.050;2023-07-13T12:07:05;2.20;;;1.20;;
13122;SDS011;6627;50.920;12.050;2023-07-13T12:09:40;5.15;;;1.00;;
13122;SDS011;6627;50.920;12.050;2023-07-13T12:12:11;2.03;;;1.37;;
13122;SDS011;6627;50.920;12.050;2023-07-13T12:14:40;1.73;;;1.08;;
13122;SDS011;6627;50.920;12.050;2023-07-13T12:17:11;2.20;;;1.10;;
13122;SDS011;6627;50.920;12.050;2023-07-13T12:19:45;1.85;;;1.10;;
13122;SDS011;6627;50.920;12.050;2023-07-13T12:22:15;2.67;;;0.90;;
13122;SDS011;6627;50.920;12.050;2023-07-13T12:24:45;4.43;;;1.00;;
13122;SDS011;6627;50.920;12.050;2023-07-13T12:29:49;2.90;;;0.90;;
13122;SDS011;6627;50.920;12.050;2023-07-13T12:32:19;2.33;;;0.90;;
13122;SDS011;6627;50.920;12.050;2023-07-13T12:34:53;1.58;;;0.80;;
13122;SDS011;6627;50.920;12.050;2023-07-13T12:37:23;3.38;;;0.90;;
13122;SDS011;6627;50.920;12.050;2023-07-13T12:39:51;3.80;;;1.08;;
13122;SDS011;6627;50.920;12.050;2023-07-13T12:42:20;0.90;;;0.80;;
13122;SDS011;6627;50.920;12.050;2023-07-13T12:44:53;2.60;;;0.80;;
13122;SDS011;6627;50.920;12.050;2023-07-13T12:47:24;2.05;;;0.90;;
13122;SDS011;6627;50.920;12.050;2023-07-13T12:49:53;3.55;;;0.88;;
13122;SDS011;6627;50.920;12.050;2023-07-13T12:52:33;1.63;;;0.88;;
13122;SDS011;6627;50.920;12.050;2023-07-13T12:55:03;1.60;;;0.90;;
13122;SDS011;6627;50.920;12.050;2023-07-13T12:57:40;2.47;;;1.13;;
13122;SDS011;6627;50.920;12.050;2023-07-13T13:00:22;2.17;;;1.10;;
13122;SDS011;6627;50.920;12.050;2023-07-13T13:02:54;2.90;;;1.13;;
13122;SDS011;6627;50.920;12.050;2023-07-13T13:05:26;3.03;;;0.90;;
13122;SDS011;6627;50.920;12.050;2023-07-13T13:07:55;2.53;;;1.03;;
13122;SDS011;6627;50.920;12.050;2023-07-13T13:10:22;2.07;;;0.97;;
13122;SDS011;6627;50.920;12.050;2023-07-13T13:12:50;2.90;;;1.20;;
13122;SDS011;6627;50.920;12.050;2023-07-13T13:15:17;4.70;;;1.30;;
13122;SDS011;6627;50.920;12.050;2023-07-13T13:17:47;2.60;;;1.07;;
13122;SDS011;6627;50.920;12.050;2023-07-13T13:20:16;2.13;;;0.98;;
13122;SDS011;6627;50.920;12.050;2023-07-13T13:22:45;3.42;;;1.30;;
13122;SDS011;6627;50.920;12.050;2023-07-13T13:25:14;3.90;;;1.00;;
13122;SDS011;6627;50.920;12.050;2023-07-13T13:27:43;2.75;;;1.05;;
13122;SDS011;6627;50.920;12.050;2023-07-13T13:30:12;2.93;;;1.17;;
13122;SDS011;6627;50.920;12.050;2023-07-13T13:32:42;1.20;;;0.98;;
13122;SDS011;6627;50.920;12.050;2023-07-13T13:35:13;3.00;;;1.10;;
13122;SDS011;6627;50.920;12.050;2023-07-13T13:37:42;2.72;;;1.10;;
13122;SDS011;6627;50.920;12.050;2023-07-13T13:40:15;2.70;;;1.10;;
13122;SDS011;6627;50.920;12.050;2023-07-13T13:42:45;2.63;;;1.08;;
13122;SDS011;6627;50.920;12.050;2023-07-13T13:45:13;3.05;;;1.10;;
13122;SDS011;6627;50.920;12.050;2023-07-13T13:47:43;2.35;;;1.20;;
13122;SDS011;6627;50.920;12.050;2023-07-13T13:50:12;1.45;;;1.08;;
13122;SDS011;6627;50.920;12.050;2023-07-13T13:52:41;2.17;;;1.02;;
13122;SDS011;6627;50.920;12.050;2023-07-13T13:55:15;5.15;;;1.20;;
13122;SDS011;6627;50.920;12.050;2023-07-13T13:57:46;2.15;;;1.05;;
13122;SDS011;6627;50.920;12.050;2023-07-13T14:00:14;3.90;;;0.82;;
13122;SDS011;6627;50.920;12.050;2023-07-13T14:02:44;2.10;;;1.20;;
13122;SDS011;6627;50.920;12.050;2023-07-13T14:05:17;2.65;;;1.10;;
13122;SDS011;6627;50.920;12.050;2023-07-13T14:07:48;2.70;;;1.10;;
13122;SDS011;6627;50.920;12.050;2023-07-13T14:10:17;6.60;;;1.40;;
13122;SDS011;6627;50.920;12.050;2023-07-13T14:12:47;5.97;;;1.40;;
13122;SDS011;6627;50.920;12.050;2023-07-13T14:15:21;1.42;;;1.15;;
13122;SDS011;6627;50.920;12.050;2023-07-13T14:17:52;1.58;;;1.10;;
13122;SDS011;6627;50.920;12.050;2023-07-13T14:20:21;2.35;;;0.90;;
13122;SDS011;6627;50.920;12.050;2023-07-13T14:22:51;3.80;;;1.10;;
13122;SDS011;6627;50.920;12.050;2023-07-13T14:25:21;2.70;;;1.08;;
13122;SDS011;6627;50.920;12.050;2023-07-13T14:27:49;2.88;;;1.27;;
13122;SDS011;6627;50.920;12.050;2023-07-13T14:30:24;4.00;;;1.10;;
13122;SDS011;6627;50.920;12.050;2023-07-13T14:32:53;1.77;;;1.00;;
13122;SDS011;6627;50.920;12.050;2023-07-13T14:35:21;2.15;;;1.08;;
13122;SDS011;6627;50.920;12.050;2023-07-13T14:37:49;7.73;;;1.50;;
13122;SDS011;6627;50.920;12.050;2023-07-13T14:40:19;4.43;;;1.23;;
13122;SDS011;6627;50.920;12.050;2023-07-13T14:42:53;2.53;;;1.00;;
13122;SDS011;6627;50.920;12.050;2023-07-13T14:45:21;1.98;;;1.10;;
13122;SDS011;6627;50.920;12.050;2023-07-13T14:47:49;2.53;;;1.00;;
13122;SDS011;6627;50.920;12.050;2023-07-13T14:50:17;4.68;;;1.35;;
13122;SDS011;6627;50.920;12.050;2023-07-13T14:52:47;1.67;;;1.10;;
13122;SDS011;6627;50.920;12.050;2023-07-13T14:55:16;4.82;;;1.20;;
13122;SDS011;6627;50.920;12.050;2023-07-13T14:57:46;2.63;;;1.10;;
13122;SDS011;6627;50.920;12.050;2023-07-13T15:00:16;3.40;;;1.10;;
13122;SDS011;6627;50.920;12.050;2023-07-13T15:02:47;3.38;;;1.20;;
13122;SDS011;6627;50.920;12.050;2023-07-13T15:05:19;3.47;;;1.10;;
13122;SDS011;6627;50.920;12.050;2023-07-13T15:07:50;2.15;;;1.30;;
13122;SDS011;6627;50.920;12.050;2023-07-13T15:10:19;4.80;;;1.25;;
13122;SDS011;6627;50.920;12.050;2023-07-13T15:12:51;3.40;;;1.30;;
13122;SDS011;6627;50.920;12.050;2023-07-13T15:15:19;4.43;;;1.08;;